Lagoa Santa Air Base

SBLS · 米纳斯吉拉斯州, 巴西

METAR的历史 SBLS · Lagoa Santa Air Base

下面你可以看到过去几天的METARs。 选择年份以浏览从2007年开始的旧METAR。

2024年4月18日

时间 代码 天气 温度 能见度 天花板 METAR/SPECI
06:00
V
20 °C 10 km+ - 210° 210° 3 kt METAR SBLS 180900Z 21003KT CAVOK 20/18 Q1016

2024年4月17日

时间 代码 天气 温度 能见度 天花板 METAR/SPECI
22:00
V
23 °C 10 km+ - 160° 160° 8 kt METAR SBLS 180100Z 16008KT CAVOK 23/19 Q1017
21:00
V
23 °C 10 km+ - 160° 160° 8 kt METAR SBLS 180000Z 16008KT CAVOK 23/19 Q1017
20:00
V
24 °C 10 km+ - 160° 160° 7 kt METAR SBLS 172300Z 16007KT CAVOK 24/18 Q1016
19:00
V
24 °C 10 km+ - 130° 130° 7 kt METAR SBLS 172200Z 13007KT CAVOK 24/19 Q1016
18:00
V
25 °C 10 km+ - 310° 310° 2 kt METAR SBLS 172100Z 31002KT CAVOK 25/18 Q1016
17:00
V
29 °C 10 km+ - 310° 310° 4 kt METAR SBLS 172000Z 31004KT 250V320 9999 FEW040 29/17 Q1016
16:00
V
30 °C 10 km+ - 040° 040° 1 kt METAR SBLS 171900Z 04001KT 9999 SCT040 30/17 Q1016
15:00
V
27 °C 10 km+ - Var Var 2 kt METAR SBLS 171800Z VRB02KT 9999 SCT040 27/16 Q1016
14:00
V
28 °C 10 km+ - Var Var 2 kt METAR SBLS 171700Z VRB02KT 9999 SCT035 28/17 Q1017
13:00
V
29 °C 10 km+ - Var Var 3 kt METAR SBLS 171600Z VRB03KT 9999 SCT035 29/18 Q1018
12:00
V
29 °C 10 km+ - Var Var 3 kt METAR SBLS 171500Z VRB03KT 9999 SCT030 29/18 Q1019
11:00
V
27 °C 10 km+ - Var Var 3 kt METAR SBLS 171400Z VRB03KT 9999 FEW025 27/18 Q1020
10:00
V
25 °C 10 km+ - Var Var 2 kt METAR SBLS 171300Z VRB02KT 9999 FEW021 25/18 Q1021
09:00
V
23 °C 10 km+ - 200° 200° 4 kt METAR SBLS 171200Z 20004KT 9999 FEW020 23/18 Q1021
08:00
V
21 °C 10 km+ - 150° 150° 6 kt METAR SBLS 171100Z 15006KT CAVOK 21/18 Q1020
07:00
V
19 °C 10 km+ - 170° 170° 6 kt METAR SBLS 171000Z 17006KT CAVOK 19/18 Q1020
06:00
V
19 °C 10 km+ - 150° 150° 6 kt METAR SBLS 170900Z 15006KT CAVOK 19/18 Q1019

2024年4月16日

时间 代码 天气 温度 能见度 天花板 METAR/SPECI
22:00
V
21 °C 10 km+ - 170° 170° 7 kt METAR SBLS 170100Z 17007KT CAVOK 21/18 Q1020
21:00
V
21 °C 10 km+ - 180° 180° 4 kt METAR SBLS 170000Z 18004KT CAVOK 21/18 Q1020
20:00
V
22 °C 10 km+ - 160° 160° 6 kt METAR SBLS 162300Z 16006KT CAVOK 22/18 Q1020
19:00
V
22 °C 10 km+ - 140° 140° 7 kt METAR SBLS 162200Z 14007KT CAVOK 22/18 Q1019
18:00
V
24 °C 10 km+ - 130° 130° 9 kt METAR SBLS 162100Z 13009KT 9999 FEW036 24/18 Q1019
17:00
V
25 °C 10 km+ - 140° 140° 11 kt METAR SBLS 162000Z 14011KT 9999 SCT036 25/18 Q1019
16:00
V
26 °C 10 km+ 3.600 ft 150° 150° 10 kt METAR SBLS 161900Z 15010KT 9999 BKN036 26/18 Q1019
15:00
V
28 °C 10 km+ 4.000 ft 120° 120° 4 kt METAR SBLS 161800Z 12004KT 010V150 9999 BKN040 28/17 Q1019
14:00
V
27 °C 10 km+ 3.700 ft 120° 120° 6 kt METAR SBLS 161700Z 12006KT 040V130 9999 BKN037 27/18 Q1019
13:00
V
28 °C 10 km+ 3.300 ft 140° 140° 6 kt METAR SBLS 161600Z 14006KT 9999 BKN033 28/18 Q1020
12:00
M
26 °C 10 km+ 3.000 ft 040° 040° 3 kt METAR SBLS 161500Z 04003KT 9999 BKN030 26/18 Q1021
11:00
M
26 °C 10 km+ 3.000 ft Var Var 4 kt METAR SBLS 161400Z VRB04KT 9999 BKN030 26/18 Q1022
10:00
V
25 °C 10 km+ - 120° 120° 5 kt METAR SBLS 161300Z 12005KT 350V140 9999 SCT025 25/18 Q1022
09:00
V
23 °C 10 km+ - 150° 150° 7 kt METAR SBLS 161200Z 15007KT 9999 FEW020 23/18 Q1022
08:00
V
21 °C 10 km+ - 160° 160° 8 kt METAR SBLS 161100Z 16008KT 9999 FEW020 21/17 Q1022
07:00
V
19 °C 10 km+ - 170° 170° 7 kt METAR SBLS 161000Z 17007KT 9999 FEW020 19/17 Q1021
06:00
V
19 °C 10 km+ - 150° 150° 7 kt METAR SBLS 160900Z 15007KT 9999 FEW020 19/16 Q1021
报告变更